Time;durP1;ratioP1;P1;durP2;ratioP2;P2;SDS_P1;SDS_P2;PMS_P1;PMS_P2;Temp;Humidity;BMP_temperature;BMP_pressure;BME280_temperature;BME280_humidity;BME280_pressure;Samples;Min_cycle;Max_cycle;Signal;HPM_P1;HPM_P2
2023/03/19 00:00:17;;;;;;;0.00;0.00;;;;;;;;;;1749605;28;20333;-75
2023/03/19 00:01:09;;;;;;;0.00;0.00;;;;;;;;;;1747035;28;20263;-75
2023/03/19 00:02:00;;;;;;;0.00;0.00;;;;;;;;;;1753482;28;20214;-75
2023/03/19 00:02:52;;;;;;;0.00;0.00;;;;;;;;;;1749040;28;20218;-75
2023/03/19 00:03:43;;;;;;;0.00;0.00;;;;;;;;;;1741535;28;20567;-75
2023/03/19 00:04:35;;;;;;;0.00;0.00;;;;;;;;;;1742926;28;20207;-75
2023/03/19 00:05:26;;;;;;;0.00;0.00;;;;;;;;;;1744974;28;20288;-75
2023/03/19 00:06:18;;;;;;;0.00;0.00;;;;;;;;;;1743217;28;20534;-75
2023/03/19 00:07:10;;;;;;;0.00;0.00;;;;;;;;;;1752463;28;20201;-75
2023/03/19 00:08:02;;;;;;;0.00;0.00;;;;;;;;;;1748249;28;20687;-75
2023/03/19 00:08:53;;;;;;;0.00;0.00;;;;;;;;;;1740361;28;20208;-75
2023/03/19 00:09:47;;;;;;;0.00;0.00;;;;;;;;;;1748256;28;20335;-75
2023/03/19 00:10:38;;;;;;;0.00;0.00;;;;;;;;;;1741490;28;20254;-75
2023/03/19 00:11:30;;;;;;;0.00;0.00;;;;;;;;;;1746993;28;20235;-75
2023/03/19 00:12:22;;;;;;;0.00;0.00;;;;;;;;;;1750633;28;20228;-75
2023/03/19 00:13:14;;;;;;;0.00;0.00;;;;;;;;;;1747270;28;20350;-75
2023/03/19 00:14:06;;;;;;;0.00;0.00;;;;;;;;;;1739700;28;20239;-75
2023/03/19 00:14:58;;;;;;;0.00;0.00;;;;;;;;;;1749988;28;20698;-75
2023/03/19 00:15:49;;;;;;;0.00;0.00;;;;;;;;;;1738652;28;20270;-75
2023/03/19 00:16:41;;;;;;;0.00;0.00;;;;;;;;;;1749984;28;20890;-75
2023/03/19 00:17:32;;;;;;;0.00;0.00;;;;;;;;;;1744935;28;20272;-75
2023/03/19 00:18:24;;;;;;;0.00;0.00;;;;;;;;;;1744360;28;20269;-75
2023/03/19 00:19:16;;;;;;;0.00;0.00;;;;;;;;;;1739913;28;20207;-75
2023/03/19 00:20:09;;;;;;;0.00;0.00;;;;;;;;;;1750010;28;20230;-75
2023/03/19 00:21:01;;;;;;;0.00;0.00;;;;;;;;;;1738336;28;20273;-75
2023/03/19 00:21:53;;;;;;;0.00;0.00;;;;;;;;;;1753446;28;20519;-75
2023/03/19 00:22:44;;;;;;;0.00;0.00;;;;;;;;;;1742034;28;20207;-75
2023/03/19 00:23:36;;;;;;;0.00;0.00;;;;;;;;;;1744073;28;20256;-75
2023/03/19 00:24:27;;;;;;;0.00;0.00;;;;;;;;;;1740349;28;20237;-75
2023/03/19 00:25:19;;;;;;;0.00;0.00;;;;;;;;;;1747079;28;20233;-75
2023/03/19 00:26:10;;;;;;;0.00;0.00;;;;;;;;;;1744239;28;20198;-75
2023/03/19 00:27:03;;;;;;;0.00;0.00;;;;;;;;;;1753282;28;20267;-75
2023/03/19 00:27:54;;;;;;;0.00;0.00;;;;;;;;;;1742746;28;20226;-75
2023/03/19 00:28:46;;;;;;;0.00;0.00;;;;;;;;;;1741160;28;20681;-75
2023/03/19 00:29:38;;;;;;;0.00;0.00;;;;;;;;;;1745856;28;20628;-75
2023/03/19 00:30:30;;;;;;;0.00;0.00;;;;;;;;;;1744219;28;20691;-75
2023/03/19 00:31:21;;;;;;;0.00;0.00;;;;;;;;;;1744428;28;20296;-75
2023/03/19 00:32:14;;;;;;;0.00;0.00;;;;;;;;;;1752223;28;20241;-75
2023/03/19 00:33:05;;;;;;;0.00;0.00;;;;;;;;;;1747424;28;20210;-75
2023/03/19 00:33:57;;;;;;;0.00;0.00;;;;;;;;;;1740092;28;20207;-75
2023/03/19 00:34:48;;;;;;;0.00;0.00;;;;;;;;;;1749045;28;20206;-75
2023/03/19 00:35:41;;;;;;;0.00;0.00;;;;;;;;;;1746387;28;20254;-75
2023/03/19 00:36:32;;;;;;;0.00;0.00;;;;;;;;;;1749678;28;20214;-75
2023/03/19 00:37:24;;;;;;;0.00;0.00;;;;;;;;;;1747446;28;20307;-75
2023/03/19 00:38:15;;;;;;;0.00;0.00;;;;;;;;;;1744241;28;20268;-75
2023/03/19 00:39:07;;;;;;;0.00;0.00;;;;;;;;;;1739745;28;20207;-75
2023/03/19 00:39:58;;;;;;;0.00;0.00;;;;;;;;;;1750107;28;20246;-75
2023/03/19 00:40:49;;;;;;;0.00;0.00;;;;;;;;;;1745438;28;20238;-75
2023/03/19 00:41:49;;;;;;;0.00;0.00;;;;;;;;;;1751312;28;20210;-75
2023/03/19 00:42:40;;;;;;;0.00;0.00;;;;;;;;;;1743579;28;20216;-75
2023/03/19 00:43:32;;;;;;;0.00;0.00;;;;;;;;;;1745045;28;20237;-75
2023/03/19 00:44:23;;;;;;;0.00;0.00;;;;;;;;;;1741157;28;20590;-75
2023/03/19 00:45:17;;;;;;;0.00;0.00;;;;;;;;;;1752835;28;20336;-75
2023/03/19 00:46:08;;;;;;;0.00;0.00;;;;;;;;;;1751673;28;20273;-75
2023/03/19 00:47:00;;;;;;;0.00;0.00;;;;;;;;;;1740679;28;20662;-75
2023/03/19 00:47:51;;;;;;;0.00;0.00;;;;;;;;;;1742588;28;20211;-75
2023/03/19 00:48:43;;;;;;;0.00;0.00;;;;;;;;;;1748588;28;20206;-75
2023/03/19 00:49:34;;;;;;;0.00;0.00;;;;;;;;;;1748124;28;20221;-75
2023/03/19 00:50:26;;;;;;;0.00;0.00;;;;;;;;;;1752812;28;20209;-75
2023/03/19 00:51:17;;;;;;;0.00;0.00;;;;;;;;;;1749441;28;20240;-75
2023/03/19 00:52:09;;;;;;;0.00;0.00;;;;;;;;;;1740955;28;20208;-75
2023/03/19 00:53:00;;;;;;;0.00;0.00;;;;;;;;;;1748797;28;20221;-75
2023/03/19 00:53:52;;;;;;;0.00;0.00;;;;;;;;;;1740556;28;20710;-75
2023/03/19 00:54:43;;;;;;;0.00;0.00;;;;;;;;;;1746174;28;20214;-75
2023/03/19 00:55:36;;;;;;;0.00;0.00;;;;;;;;;;1752691;28;20348;-75
2023/03/19 00:56:27;;;;;;;0.00;0.00;;;;;;;;;;1746918;28;20211;-75
2023/03/19 00:57:19;;;;;;;0.10;0.10;;;;;;;;;;1740096;28;20281;-75
2023/03/19 00:58:10;;;;;;;0.00;0.00;;;;;;;;;;1745346;28;20505;-75
2023/03/19 00:59:02;;;;;;;0.00;0.00;;;;;;;;;;1740433;28;20273;-75
2023/03/19 00:59:53;;;;;;;0.00;0.00;;;;;;;;;;1748003;28;20206;-75
2023/03/19 01:00:47;;;;;;;0.00;0.00;;;;;;;;;;1752504;28;20298;-75
2023/03/19 01:01:38;;;;;;;0.00;0.00;;;;;;;;;;1743846;28;20258;-75
2023/03/19 01:02:31;;;;;;;0.00;0.00;;;;;;;;;;1739962;28;20206;-75
2023/03/19 01:03:22;;;;;;;0.00;0.00;;;;;;;;;;1745617;28;20210;-75
2023/03/19 01:04:14;;;;;;;0.00;0.00;;;;;;;;;;1740146;28;20628;-75
2023/03/19 01:05:07;;;;;;;0.00;0.00;;;;;;;;;;1751861;28;20198;-75
2023/03/19 01:05:59;;;;;;;0.00;0.00;;;;;;;;;;1751958;28;20248;-75
2023/03/19 01:06:50;;;;;;;0.00;0.00;;;;;;;;;;1739780;28;20219;-75
2023/03/19 01:07:42;;;;;;;0.00;0.00;;;;;;;;;;1740591;28;20542;-75
2023/03/19 01:08:33;;;;;;;0.00;0.00;;;;;;;;;;1746660;28;20272;-75
2023/03/19 01:09:25;;;;;;;0.00;0.00;;;;;;;;;;1746101;28;20567;-75
2023/03/19 01:10:17;;;;;;;0.00;0.00;;;;;;;;;;1750068;28;20465;-75
2023/03/19 01:11:10;;;;;;;0.00;0.00;;;;;;;;;;1745584;28;20667;-75
2023/03/19 01:12:03;;;;;;;0.00;0.00;;;;;;;;;;1740361;28;20269;-75
2023/03/19 01:12:55;;;;;;;0.00;0.00;;;;;;;;;;1743028;28;20547;-75
2023/03/19 01:13:46;;;;;;;0.00;0.00;;;;;;;;;;1741791;28;20211;-75
2023/03/19 01:14:38;;;;;;;0.00;0.00;;;;;;;;;;1743430;28;20203;-75
2023/03/19 01:15:29;;;;;;;0.00;0.00;;;;;;;;;;1744888;28;20535;-75
2023/03/19 01:16:23;;;;;;;0.00;0.00;;;;;;;;;;1740338;28;20257;-75
2023/03/19 01:17:14;;;;;;;0.00;0.00;;;;;;;;;;1739832;28;20299;-75
2023/03/19 01:18:06;;;;;;;0.00;0.00;;;;;;;;;;1745291;28;20212;-75
2023/03/19 01:18:57;;;;;;;0.00;0.00;;;;;;;;;;1739878;28;20665;-75
2023/03/19 01:19:50;;;;;;;0.00;0.00;;;;;;;;;;1745106;28;20206;-75
2023/03/19 01:20:41;;;;;;;0.00;0.00;;;;;;;;;;1739229;28;20277;-75
2023/03/19 01:21:34;;;;;;;0.00;0.00;;;;;;;;;;1741469;28;20230;-75
2023/03/19 01:22:26;;;;;;;0.00;0.00;;;;;;;;;;1740022;28;20211;-75
2023/03/19 01:23:18;;;;;;;0.00;0.00;;;;;;;;;;1745873;28;20551;-75
2023/03/19 01:24:09;;;;;;;0.00;0.00;;;;;;;;;;1740135;28;20276;-75
2023/03/19 01:25:05;;;;;;;0.00;0.00;;;;;;;;;;1739836;28;20727;-75
2023/03/19 08:20:58;;;;;;;0.00;0.00;;;;;;;;;;1717915;28;20324;-75
2023/03/19 08:21:49;;;;;;;0.00;0.00;;;;;;;;;;1724904;28;20312;-75
2023/03/19 08:22:41;;;;;;;0.00;0.00;;;;;;;;;;1725724;28;20275;-75
2023/03/19 08:23:32;;;;;;;0.00;0.00;;;;;;;;;;1725533;28;20223;-76
2023/03/19 08:24:24;;;;;;;0.00;0.00;;;;;;;;;;1726108;28;20220;-76
2023/03/19 08:25:15;;;;;;;0.00;0.00;;;;;;;;;;1723255;28;20217;-75
2023/03/19 08:26:08;;;;;;;0.00;0.00;;;;;;;;;;1725740;28;20205;-75
2023/03/19 08:26:59;;;;;;;0.00;0.00;;;;;;;;;;1725818;28;20213;-75
2023/03/19 08:27:51;;;;;;;0.00;0.00;;;;;;;;;;1726123;28;20688;-75
2023/03/19 08:28:43;;;;;;;0.00;0.00;;;;;;;;;;1727439;28;20223;-75
2023/03/19 08:29:34;;;;;;;0.00;0.00;;;;;;;;;;1720861;28;20213;-75
2023/03/19 08:30:26;;;;;;;0.00;0.00;;;;;;;;;;1724376;28;20287;-75
2023/03/19 08:31:17;;;;;;;0.00;0.00;;;;;;;;;;1726081;28;20193;-75
2023/03/19 08:32:09;;;;;;;0.00;0.00;;;;;;;;;;1723894;28;20205;-75
2023/03/19 08:33:00;;;;;;;0.00;0.00;;;;;;;;;;1725726;28;20212;-75
2023/03/19 08:33:52;;;;;;;0.00;0.00;;;;;;;;;;1722590;28;20205;-75
2023/03/19 08:34:43;;;;;;;0.00;0.00;;;;;;;;;;1723876;28;20255;-75
2023/03/19 08:35:35;;;;;;;0.00;0.00;;;;;;;;;;1729794;28;20326;-75
2023/03/19 08:36:27;;;;;;;0.00;0.00;;;;;;;;;;1728827;28;20890;-75
2023/03/19 08:37:19;;;;;;;0.00;0.00;;;;;;;;;;1726083;28;20642;-75
2023/03/19 08:38:10;;;;;;;0.00;0.00;;;;;;;;;;1725106;28;20283;-75
2023/03/19 08:39:03;;;;;;;0.00;0.00;;;;;;;;;;1725617;28;20209;-75
2023/03/19 08:39:54;;;;;;;0.00;0.00;;;;;;;;;;1725455;28;20213;-75
2023/03/19 08:40:46;;;;;;;0.00;0.00;;;;;;;;;;1720288;28;20247;-75
2023/03/19 08:41:38;;;;;;;0.00;0.00;;;;;;;;;;1722545;28;20225;-76
2023/03/19 08:42:30;;;;;;;0.00;0.00;;;;;;;;;;1725474;28;20664;-76
2023/03/19 08:43:22;;;;;;;0.00;0.00;;;;;;;;;;1724297;28;20231;-76
2023/03/19 08:44:13;;;;;;;0.00;0.00;;;;;;;;;;1725832;28;20289;-76
2023/03/19 08:45:05;;;;;;;0.00;0.00;;;;;;;;;;1729968;28;20220;-76
2023/03/19 08:45:56;;;;;;;0.00;0.00;;;;;;;;;;1726594;28;20811;-75
2023/03/19 08:46:48;;;;;;;0.00;0.00;;;;;;;;;;1723519;28;20241;-75
2023/03/19 08:47:40;;;;;;;0.00;0.00;;;;;;;;;;1725868;28;20213;-75
2023/03/19 08:48:32;;;;;;;0.00;0.00;;;;;;;;;;1724821;28;20205;-75
2023/03/19 08:49:23;;;;;;;0.00;0.00;;;;;;;;;;1724066;28;20601;-75
2023/03/19 08:50:15;;;;;;;0.00;0.00;;;;;;;;;;1724111;28;20287;-75
2023/03/19 08:51:07;;;;;;;0.00;0.00;;;;;;;;;;1725596;28;20224;-75
2023/03/19 08:52:00;;;;;;;0.00;0.00;;;;;;;;;;1724353;28;20267;-75
2023/03/19 08:52:51;;;;;;;0.00;0.00;;;;;;;;;;1724238;28;20651;-75
2023/03/19 08:53:43;;;;;;;0.00;0.00;;;;;;;;;;1722221;28;20690;-76
2023/03/19 08:54:35;;;;;;;0.00;0.00;;;;;;;;;;1724455;28;20549;-75
2023/03/19 08:55:27;;;;;;;0.00;0.00;;;;;;;;;;1724061;28;20241;-76
2023/03/19 08:56:18;;;;;;;0.00;0.00;;;;;;;;;;1725769;28;20201;-76
2023/03/19 08:57:10;;;;;;;0.00;0.00;;;;;;;;;;1725861;28;20220;-76
2023/03/19 08:58:01;;;;;;;0.00;0.00;;;;;;;;;;1725187;28;20289;-75
2023/03/19 08:58:53;;;;;;;0.00;0.00;;;;;;;;;;1726571;28;20275;-76
2023/03/19 08:59:44;;;;;;;0.00;0.00;;;;;;;;;;1725493;28;20247;-76
2023/03/19 09:00:36;;;;;;;0.00;0.00;;;;;;;;;;1724430;28;20263;-75
2023/03/19 09:01:28;;;;;;;0.00;0.00;;;;;;;;;;1725400;28;20229;-75
2023/03/19 09:02:20;;;;;;;0.00;0.00;;;;;;;;;;1719330;28;20367;-75
2023/03/19 09:03:11;;;;;;;0.00;0.00;;;;;;;;;;1724807;28;20274;-75
2023/03/19 09:04:03;;;;;;;0.00;0.00;;;;;;;;;;1725675;28;20271;-75
2023/03/19 09:04:55;;;;;;;0.03;0.03;;;;;;;;;;1725607;28;20603;-75
2023/03/19 09:05:46;;;;;;;0.00;0.00;;;;;;;;;;1724128;28;20274;-76
2023/03/19 09:06:38;;;;;;;0.00;0.00;;;;;;;;;;1725389;28;20212;-76
2023/03/19 09:07:31;;;;;;;0.00;0.00;;;;;;;;;;1725792;28;20282;-76
2023/03/19 09:08:22;;;;;;;0.00;0.00;;;;;;;;;;1725623;28;20220;-76
2023/03/19 09:09:14;;;;;;;0.00;0.00;;;;;;;;;;1726077;28;20217;-76
2023/03/19 09:10:06;;;;;;;0.00;0.00;;;;;;;;;;1725669;28;20208;-76
2023/03/19 09:10:58;;;;;;;0.00;0.00;;;;;;;;;;1724172;28;20299;-76
2023/03/19 09:11:49;;;;;;;0.00;0.00;;;;;;;;;;1726498;28;20279;-76
2023/03/19 09:12:41;;;;;;;0.00;0.00;;;;;;;;;;1730556;28;20675;-76
2023/03/19 09:13:33;;;;;;;0.00;0.00;;;;;;;;;;1724810;28;20279;-76
2023/03/19 09:14:25;;;;;;;0.00;0.00;;;;;;;;;;1719193;28;20643;-76
2023/03/19 09:15:16;;;;;;;0.00;0.00;;;;;;;;;;1723981;28;20228;-77
2023/03/19 09:16:08;;;;;;;0.00;0.00;;;;;;;;;;1725470;28;20248;-76
2023/03/19 09:16:59;;;;;;;0.00;0.00;;;;;;;;;;1725536;28;20274;-76
2023/03/19 09:17:51;;;;;;;0.00;0.00;;;;;;;;;;1725716;28;20531;-76
2023/03/19 09:18:42;;;;;;;0.00;0.00;;;;;;;;;;1725505;28;20220;-76
2023/03/19 09:19:34;;;;;;;0.00;0.00;;;;;;;;;;1725596;28;20275;-76
2023/03/19 09:20:25;;;;;;;0.00;0.00;;;;;;;;;;1717151;28;20240;-77
2023/03/19 09:21:17;;;;;;;0.00;0.00;;;;;;;;;;1725133;28;20259;-76
2023/03/19 09:22:08;;;;;;;0.00;0.00;;;;;;;;;;1725639;28;20251;-76
2023/03/19 09:23:01;;;;;;;0.00;0.00;;;;;;;;;;1722862;28;20303;-76
2023/03/19 09:23:52;;;;;;;0.00;0.00;;;;;;;;;;1722516;28;20577;-76
2023/03/19 09:24:44;;;;;;;0.00;0.00;;;;;;;;;;1725258;28;20271;-76
2023/03/19 09:25:35;;;;;;;0.00;0.00;;;;;;;;;;1724161;28;20248;-75
2023/03/19 09:26:28;;;;;;;0.00;0.00;;;;;;;;;;1725679;28;20446;-75
2023/03/19 09:27:19;;;;;;;0.00;0.00;;;;;;;;;;1724184;28;20278;-75
2023/03/19 09:28:11;;;;;;;0.00;0.00;;;;;;;;;;1721419;28;20694;-75
2023/03/19 09:29:03;;;;;;;0.00;0.00;;;;;;;;;;1723737;28;20209;-75
2023/03/19 09:29:55;;;;;;;0.00;0.00;;;;;;;;;;1725598;28;20219;-75
2023/03/19 09:30:47;;;;;;;0.00;0.00;;;;;;;;;;1724015;28;20241;-75
2023/03/19 09:31:39;;;;;;;0.00;0.00;;;;;;;;;;1725298;28;20279;-75
2023/03/19 09:32:31;;;;;;;0.00;0.00;;;;;;;;;;1725412;28;20213;-75
2023/03/19 09:33:22;;;;;;;0.00;0.00;;;;;;;;;;1724340;28;20216;-75
2023/03/19 09:34:14;;;;;;;0.00;0.00;;;;;;;;;;1725820;28;20582;-75
2023/03/19 09:35:05;;;;;;;0.00;0.00;;;;;;;;;;1721467;28;20304;-75
2023/03/19 09:35:57;;;;;;;0.00;0.00;;;;;;;;;;1720817;28;20240;-76
2023/03/19 09:36:48;;;;;;;0.00;0.00;;;;;;;;;;1725085;28;20271;-76
2023/03/19 09:37:40;;;;;;;0.00;0.00;;;;;;;;;;1725653;28;20270;-76
2023/03/19 09:38:33;;;;;;;0.00;0.00;;;;;;;;;;1719082;28;20236;-76
2023/03/19 09:39:25;;;;;;;0.00;0.00;;;;;;;;;;1725655;28;20642;-76
2023/03/19 09:40:20;;;;;;;0.00;0.00;;;;;;;;;;1724937;28;20814;-76
2023/03/19 09:41:16;;;;;;;0.00;0.00;;;;;;;;;;1723135;28;20320;-76
2023/03/19 09:42:13;;;;;;;0.00;0.00;;;;;;;;;;1722465;28;20367;-76
2023/03/19 09:43:12;;;;;;;0.00;0.00;;;;;;;;;;1723407;28;20244;-76
2023/03/19 09:44:04;;;;;;;0.00;0.00;;;;;;;;;;1725536;28;20209;-76
2023/03/19 09:44:56;;;;;;;0.00;0.00;;;;;;;;;;1724511;28;20304;-75
2023/03/19 09:45:47;;;;;;;0.00;0.00;;;;;;;;;;1721247;28;24737;-76
2023/03/19 09:46:45;;;;;;;0.00;0.00;;;;;;;;;;1722080;28;20305;-76
2023/03/19 09:47:38;;;;;;;0.00;0.00;;;;;;;;;;1720065;28;20574;-76
2023/03/19 09:48:34;;;;;;;0.00;0.00;;;;;;;;;;1725248;28;20485;-76
2023/03/19 09:49:27;;;;;;;0.00;0.00;;;;;;;;;;1726022;28;20198;-75
2023/03/19 09:50:20;;;;;;;0.00;0.00;;;;;;;;;;1722895;28;20941;-76
2023/03/19 09:51:14;;;;;;;0.00;0.00;;;;;;;;;;1724926;28;20719;-76
2023/03/19 09:52:12;;;;;;;0.00;0.00;;;;;;;;;;1725258;28;20236;-76
2023/03/19 09:53:06;;;;;;;0.00;0.00;;;;;;;;;;1725540;28;20524;-76
2023/03/19 09:54:02;;;;;;;0.00;0.00;;;;;;;;;;1724585;28;20204;-76
2023/03/19 09:54:55;;;;;;;0.00;0.00;;;;;;;;;;1724855;28;20846;-76
2023/03/19 09:55:49;;;;;;;0.00;0.00;;;;;;;;;;1723648;28;20235;-76
2023/03/19 09:56:40;;;;;;;0.00;0.00;;;;;;;;;;1725162;28;20701;-76
2023/03/19 09:57:32;;;;;;;0.00;0.00;;;;;;;;;;1725060;28;20204;-76
2023/03/19 09:58:27;;;;;;;0.00;0.00;;;;;;;;;;1719078;28;20213;-76
2023/03/19 09:59:20;;;;;;;0.00;0.00;;;;;;;;;;1719157;28;20209;-76
2023/03/19 10:00:21;;;;;;;0.00;0.00;;;;;;;;;;1719805;28;20220;-76
2023/03/19 10:01:21;;;;;;;0.00;0.00;;;;;;;;;;1723221;28;20855;-76
2023/03/19 10:02:28;;;;;;;0.00;0.00;;;;;;;;;;1725196;28;20577;-76
2023/03/19 10:03:28;;;;;;;0.00;0.00;;;;;;;;;;1724050;28;20319;-76
2023/03/19 10:04:31;;;;;;;0.00;0.00;;;;;;;;;;1718887;28;20581;-76
2023/03/19 10:05:27;;;;;;;0.00;0.00;;;;;;;;;;1723809;28;20213;-77
2023/03/19 10:06:26;;;;;;;0.00;0.00;;;;;;;;;;1724902;28;20390;-76
2023/03/19 10:07:26;;;;;;;0.00;0.00;;;;;;;;;;1725572;28;20220;-76
2023/03/19 10:08:23;;;;;;;0.00;0.00;;;;;;;;;;1724896;28;20650;-76
2023/03/19 10:09:22;;;;;;;0.00;0.00;;;;;;;;;;1719468;28;20218;-76
2023/03/19 10:10:23;;;;;;;0.00;0.00;;;;;;;;;;1723205;28;20263;-75
2023/03/19 10:11:22;;;;;;;0.00;0.00;;;;;;;;;;1724783;28;20237;-75
2023/03/19 10:12:22;;;;;;;0.00;0.00;;;;;;;;;;1726333;28;20283;-75
2023/03/19 10:13:19;;;;;;;0.00;0.00;;;;;;;;;;1725926;28;20227;-75
2023/03/19 10:14:21;;;;;;;0.00;0.00;;;;;;;;;;1726346;28;20631;-75
2023/03/19 10:15:21;;;;;;;0.00;0.00;;;;;;;;;;1723588;28;20226;-75
2023/03/19 10:16:14;;;;;;;0.00;0.00;;;;;;;;;;1724986;28;20670;-75
2023/03/19 10:17:07;;;;;;;0.00;0.00;;;;;;;;;;1722660;28;20685;-75
2023/03/19 10:18:03;;;;;;;0.00;0.00;;;;;;;;;;1721112;28;20277;-75
2023/03/19 10:18:56;;;;;;;0.00;0.00;;;;;;;;;;1725856;28;20215;-75
2023/03/19 10:19:49;;;;;;;0.00;0.00;;;;;;;;;;1724896;28;20649;-75
2023/03/19 10:20:45;;;;;;;0.00;0.00;;;;;;;;;;1728324;28;20276;-75
2023/03/19 10:21:38;;;;;;;0.00;0.00;;;;;;;;;;1729414;28;20273;-75
2023/03/19 10:22:34;;;;;;;0.00;0.00;;;;;;;;;;1732623;28;20274;-75
2023/03/19 10:23:38;;;;;;;0.00;0.00;;;;;;;;;;1730485;28;20216;-75
2023/03/19 10:24:33;;;;;;;0.00;0.00;;;;;;;;;;1721369;28;20633;-75
2023/03/19 10:25:26;;;;;;;0.00;0.00;;;;;;;;;;1730617;28;20254;-76
2023/03/19 10:26:20;;;;;;;0.00;0.00;;;;;;;;;;1727017;28;20262;-76
2023/03/19 10:27:13;;;;;;;0.00;0.00;;;;;;;;;;1730831;28;20765;-76
2023/03/19 10:28:12;;;;;;;0.00;0.00;;;;;;;;;;1730825;28;20250;-76
2023/03/19 10:29:05;;;;;;;0.00;0.00;;;;;;;;;;1728206;28;20554;-76
2023/03/19 10:29:57;;;;;;;0.00;0.00;;;;;;;;;;1729525;28;20281;-76
2023/03/19 10:30:51;;;;;;;0.00;0.00;;;;;;;;;;1728584;28;20971;-75
2023/03/19 10:31:46;;;;;;;0.00;0.00;;;;;;;;;;1729094;28;20212;-75
2023/03/19 10:32:40;;;;;;;0.00;0.00;;;;;;;;;;1731712;28;20301;-75
2023/03/19 10:33:36;;;;;;;0.00;0.00;;;;;;;;;;1732033;28;20212;-75
2023/03/19 10:34:30;;;;;;;0.00;0.00;;;;;;;;;;1726400;28;20610;-75
2023/03/19 10:35:24;;;;;;;0.00;0.00;;;;;;;;;;1729655;28;20661;-75
2023/03/19 10:36:16;;;;;;;0.00;0.00;;;;;;;;;;1727798;28;20673;-75
2023/03/19 10:37:15;;;;;;;0.00;0.00;;;;;;;;;;1731244;28;20306;-75
2023/03/19 10:38:15;;;;;;;0.00;0.00;;;;;;;;;;1730312;28;20538;-75
2023/03/19 10:39:07;;;;;;;0.00;0.00;;;;;;;;;;1727809;28;20300;-75
2023/03/19 10:40:02;;;;;;;0.00;0.00;;;;;;;;;;1729929;28;20557;-75
2023/03/19 10:41:05;;;;;;;0.00;0.00;;;;;;;;;;1727812;28;20243;-76
2023/03/19 10:42:02;;;;;;;0.00;0.00;;;;;;;;;;1730830;28;20228;-76
2023/03/19 10:43:01;;;;;;;0.00;0.00;;;;;;;;;;1731804;28;20281;-76
2023/03/19 10:43:54;;;;;;;0.00;0.00;;;;;;;;;;1723126;28;20209;-75
2023/03/19 10:44:49;;;;;;;0.00;0.00;;;;;;;;;;1725450;28;20489;-75
2023/03/19 10:45:41;;;;;;;0.00;0.00;;;;;;;;;;1727704;28;20323;-75
2023/03/19 10:46:38;;;;;;;0.00;0.00;;;;;;;;;;1728802;28;20212;-75
2023/03/19 10:47:35;;;;;;;0.00;0.00;;;;;;;;;;1732052;28;20208;-75
2023/03/19 10:48:28;;;;;;;0.00;0.00;;;;;;;;;;1730503;28;20625;-75
2023/03/19 10:49:20;;;;;;;0.00;0.00;;;;;;;;;;1725699;28;20239;-75
2023/03/19 11:24:53;;;;;;;0.00;0.00;;;;;;;;;;1727544;28;20215;-75
2023/03/19 11:25:46;;;;;;;0.00;0.00;;;;;;;;;;1729915;28;20266;-75
2023/03/19 11:26:38;;;;;;;0.00;0.00;;;;;;;;;;1728391;28;20219;-76
2023/03/19 11:27:30;;;;;;;0.00;0.00;;;;;;;;;;1733033;28;20601;-75
2023/03/19 11:28:25;;;;;;;0.00;0.00;;;;;;;;;;1732245;28;20227;-76
2023/03/19 11:29:16;;;;;;;0.00;0.00;;;;;;;;;;1732902;28;20212;-76
2023/03/19 11:30:14;;;;;;;0.00;0.00;;;;;;;;;;1727490;28;20209;-75
2023/03/19 11:31:10;;;;;;;0.00;0.00;;;;;;;;;;1728272;28;20236;-75
2023/03/19 11:32:10;;;;;;;0.00;0.00;;;;;;;;;;1729840;28;20246;-75
2023/03/19 11:33:15;;;;;;;0.00;0.00;;;;;;;;;;1730954;28;20208;-75
2023/03/19 11:34:12;;;;;;;0.00;0.00;;;;;;;;;;1732936;28;20671;-75
2023/03/19 11:35:08;;;;;;;0.00;0.00;;;;;;;;;;1732213;28;20269;-75
2023/03/19 11:36:04;;;;;;;0.00;0.00;;;;;;;;;;1730757;28;20252;-75
2023/03/19 11:36:58;;;;;;;0.00;0.00;;;;;;;;;;1730606;28;20209;-76
2023/03/19 11:37:53;;;;;;;0.00;0.00;;;;;;;;;;1727320;28;20990;-75
2023/03/19 11:38:52;;;;;;;0.00;0.00;;;;;;;;;;1732696;28;20573;-76
2023/03/19 11:39:49;;;;;;;0.00;0.00;;;;;;;;;;1731979;28;20910;-75
2023/03/19 11:40:44;;;;;;;0.00;0.00;;;;;;;;;;1726534;28;20301;-75
2023/03/19 11:41:45;;;;;;;0.00;0.00;;;;;;;;;;1728756;28;20326;-75
2023/03/19 11:42:45;;;;;;;0.00;0.00;;;;;;;;;;1729690;28;20212;-75
2023/03/19 11:43:41;;;;;;;0.00;0.00;;;;;;;;;;1732080;28;20616;-76
2023/03/19 11:44:34;;;;;;;0.00;0.00;;;;;;;;;;1727732;28;20262;-76
2023/03/19 11:45:31;;;;;;;0.00;0.00;;;;;;;;;;1731691;28;20657;-75
2023/03/19 11:46:33;;;;;;;0.00;0.00;;;;;;;;;;1730572;28;20828;-75
2023/03/19 11:47:31;;;;;;;0.00;0.00;;;;;;;;;;1726444;28;20610;-75
2023/03/19 11:48:31;;;;;;;0.00;0.00;;;;;;;;;;1731344;28;20531;-75
2023/03/19 11:49:41;;;;;;;0.00;0.00;;;;;;;;;;1733092;28;20212;-75
2023/03/19 11:50:35;;;;;;;0.00;0.00;;;;;;;;;;1732069;28;20324;-76
2023/03/19 11:51:31;;;;;;;0.00;0.00;;;;;;;;;;1729342;28;20199;-76
2023/03/19 11:52:26;;;;;;;0.00;0.00;;;;;;;;;;1728220;28;20278;-76
2023/03/19 11:53:24;;;;;;;0.00;0.00;;;;;;;;;;1732044;28;20222;-75
2023/03/19 11:54:21;;;;;;;0.00;0.00;;;;;;;;;;1732771;28;20701;-76
2023/03/19 11:55:18;;;;;;;0.00;0.00;;;;;;;;;;1730598;28;20218;-76
2023/03/19 11:56:15;;;;;;;0.00;0.00;;;;;;;;;;1731423;28;20614;-76
2023/03/19 11:57:10;;;;;;;0.00;0.00;;;;;;;;;;1730813;28;20216;-75
2023/03/19 11:58:06;;;;;;;0.00;0.00;;;;;;;;;;1732691;28;20690;-76
2023/03/19 11:59:09;;;;;;;0.00;0.00;;;;;;;;;;1733011;28;20223;-76
2023/03/19 12:00:06;;;;;;;0.00;0.00;;;;;;;;;;1733033;28;20248;-76
2023/03/19 12:01:01;;;;;;;0.00;0.00;;;;;;;;;;1731232;28;20258;-76
2023/03/19 12:02:12;;;;;;;0.00;0.00;;;;;;;;;;1732480;28;20269;-76
2023/03/19 12:03:19;;;;;;;0.00;0.00;;;;;;;;;;1732902;28;20215;-76
2023/03/19 12:04:26;;;;;;;0.00;0.00;;;;;;;;;;1728271;28;20228;-76
2023/03/19 12:05:25;;;;;;;0.00;0.00;;;;;;;;;;1726132;28;20282;-75
2023/03/19 12:06:21;;;;;;;0.00;0.00;;;;;;;;;;1730051;28;20252;-75
2023/03/19 12:07:19;;;;;;;0.00;0.00;;;;;;;;;;1730285;28;20649;-75
2023/03/19 12:08:16;;;;;;;0.00;0.00;;;;;;;;;;1732601;28;20284;-75
2023/03/19 12:09:13;;;;;;;0.00;0.00;;;;;;;;;;1728805;28;20292;-75
2023/03/19 12:10:16;;;;;;;0.00;0.00;;;;;;;;;;1731976;28;20207;-75
2023/03/19 12:11:17;;;;;;;0.00;0.00;;;;;;;;;;1727697;28;20220;-76
2023/03/19 12:12:14;;;;;;;0.00;0.00;;;;;;;;;;1733343;28;20584;-76
2023/03/19 12:13:12;;;;;;;0.00;0.00;;;;;;;;;;1731953;28;20571;-75
2023/03/19 12:14:10;;;;;;;0.00;0.00;;;;;;;;;;1729624;28;20308;-76
2023/03/19 12:15:09;;;;;;;0.00;0.00;;;;;;;;;;1731278;28;20216;-76
2023/03/19 12:16:04;;;;;;;0.00;0.00;;;;;;;;;;1728271;28;20674;-76
2023/03/19 12:17:06;;;;;;;0.00;0.00;;;;;;;;;;1732664;28;20251;-76
2023/03/19 12:18:03;;;;;;;0.00;0.00;;;;;;;;;;1731927;28;20209;-75
2023/03/19 12:19:04;;;;;;;0.00;0.00;;;;;;;;;;1730537;28;20247;-76
2023/03/19 12:20:02;;;;;;;0.00;0.00;;;;;;;;;;1730122;28;20200;-76
2023/03/19 12:20:56;;;;;;;0.00;0.00;;;;;;;;;;1731386;28;20630;-76
2023/03/19 12:21:54;;;;;;;0.00;0.00;;;;;;;;;;1733251;28;20565;-76
2023/03/19 12:22:54;;;;;;;0.00;0.00;;;;;;;;;;1733448;28;20224;-76
2023/03/19 12:23:53;;;;;;;0.00;0.00;;;;;;;;;;1730873;28;20201;-76
2023/03/19 12:24:55;;;;;;;0.00;0.00;;;;;;;;;;1733881;28;20228;-76
2023/03/19 12:25:59;;;;;;;0.00;0.00;;;;;;;;;;1738665;28;20243;-75
2023/03/19 12:26:57;;;;;;;0.00;0.00;;;;;;;;;;1734920;28;20205;-75
2023/03/19 12:27:53;;;;;;;0.00;0.00;;;;;;;;;;1733607;28;20537;-75
2023/03/19 12:28:48;;;;;;;0.00;0.00;;;;;;;;;;1739921;28;20291;-75
2023/03/19 12:29:46;;;;;;;0.00;0.00;;;;;;;;;;1738211;28;20218;-75
2023/03/19 12:30:40;;;;;;;0.00;0.00;;;;;;;;;;1738332;28;20322;-75
2023/03/19 12:31:43;;;;;;;0.00;0.00;;;;;;;;;;1736472;28;20234;-75
2023/03/19 12:32:42;;;;;;;0.00;0.00;;;;;;;;;;1740466;28;20208;-75
2023/03/19 12:33:41;;;;;;;0.00;0.00;;;;;;;;;;1740119;28;20208;-75
2023/03/19 12:34:34;;;;;;;0.00;0.00;;;;;;;;;;1734254;28;20201;-75
2023/03/19 12:35:30;;;;;;;0.00;0.00;;;;;;;;;;1732524;28;20269;-76
2023/03/19 12:36:23;;;;;;;0.00;0.00;;;;;;;;;;1735413;28;20480;-76
2023/03/19 12:37:17;;;;;;;0.00;0.00;;;;;;;;;;1738617;28;20585;-76
2023/03/19 12:38:11;;;;;;;0.00;0.00;;;;;;;;;;1739478;28;20268;-76
2023/03/19 12:39:05;;;;;;;0.00;0.00;;;;;;;;;;1736288;28;20208;-76
2023/03/19 12:40:03;;;;;;;0.00;0.00;;;;;;;;;;1734417;28;20219;-76
2023/03/19 12:40:58;;;;;;;0.00;0.00;;;;;;;;;;1731173;28;20719;-76
2023/03/19 12:41:52;;;;;;;0.00;0.00;;;;;;;;;;1738078;28;20702;-75
2023/03/19 12:42:44;;;;;;;0.00;0.00;;;;;;;;;;1733946;28;20657;-76
2023/03/19 12:43:37;;;;;;;0.00;0.00;;;;;;;;;;1734224;28;20212;-76
2023/03/19 12:44:31;;;;;;;0.00;0.00;;;;;;;;;;1740276;28;20468;-76
2023/03/19 12:45:26;;;;;;;0.00;0.00;;;;;;;;;;1732028;28;20246;-76
2023/03/19 12:46:22;;;;;;;0.00;0.00;;;;;;;;;;1732896;28;20226;-76
2023/03/19 12:47:16;;;;;;;0.00;0.00;;;;;;;;;;1736361;28;20596;-76
2023/03/19 12:48:11;;;;;;;0.00;0.00;;;;;;;;;;1735550;28;20222;-75
2023/03/19 12:49:06;;;;;;;0.00;0.00;;;;;;;;;;1732509;28;20246;-76
2023/03/19 12:50:03;;;;;;;0.00;0.00;;;;;;;;;;1734477;28;20218;-76
2023/03/19 12:50:57;;;;;;;0.00;0.00;;;;;;;;;;1733183;28;20244;-76
2023/03/19 12:51:50;;;;;;;0.00;0.00;;;;;;;;;;1733855;28;20204;-75
2023/03/19 12:52:43;;;;;;;0.00;0.00;;;;;;;;;;1739750;28;20230;-76
2023/03/19 12:53:39;;;;;;;0.00;0.00;;;;;;;;;;1732938;28;20255;-76